createdAt,value
2023-04-19T00:00:58.152Z,9.6168
2023-04-19T00:01:59.624Z,9.6428
2023-04-19T00:03:01.332Z,9.6490
2023-04-19T00:04:03.060Z,9.5836
2023-04-19T00:05:05.351Z,9.6395
2023-04-19T00:06:07.097Z,9.6612
2023-04-19T00:07:08.478Z,9.6480
2023-04-19T00:08:09.938Z,9.5985
2023-04-19T00:09:11.304Z,9.6702
2023-04-19T00:10:12.701Z,9.5648
2023-04-19T00:11:14.092Z,9.5758
2023-04-19T00:12:15.476Z,9.6688
2023-04-19T00:13:16.875Z,9.7105
2023-04-19T00:14:18.389Z,9.7452
2023-04-19T00:15:19.918Z,9.6543
2023-04-19T00:16:21.389Z,9.5979
2023-04-19T00:17:22.842Z,9.6013
2023-04-19T00:18:24.329Z,9.6099
2023-04-19T00:19:25.749Z,9.5766
2023-04-19T00:20:27.408Z,9.5829
2023-04-19T00:21:29.080Z,9.6006
2023-04-19T00:22:30.526Z,9.5965
2023-04-19T00:23:31.997Z,9.5960
2023-04-19T00:24:33.436Z,9.6184
2023-04-19T00:25:34.890Z,9.5734
2023-04-19T00:26:36.282Z,9.5621
2023-04-19T00:27:37.638Z,9.5368
2023-04-19T00:28:39.034Z,9.4906
2023-04-19T00:29:40.422Z,9.4778
2023-04-19T00:30:41.855Z,9.6543
2023-04-19T00:31:43.255Z,9.6839
2023-04-19T00:32:44.674Z,9.5744
2023-04-19T00:33:46.027Z,9.5693
2023-04-19T00:34:47.414Z,9.4807
2023-04-19T00:35:48.753Z,9.4674
2023-04-19T00:36:50.144Z,9.4935
2023-04-19T00:37:51.548Z,9.5079
2023-04-19T00:38:52.959Z,9.5137
2023-04-19T00:39:54.344Z,9.4622
2023-04-19T00:40:55.730Z,9.5242
2023-04-19T00:41:57.072Z,9.5116
2023-04-19T00:42:58.478Z,9.5782
2023-04-19T00:43:59.841Z,9.6364
2023-04-19T00:45:01.409Z,9.6309
2023-04-19T00:46:02.838Z,9.6400
2023-04-19T00:47:04.226Z,9.5355
2023-04-19T00:48:05.865Z,9.5526
2023-04-19T00:49:07.213Z,9.5685
2023-04-19T00:50:08.610Z,9.5739
2023-04-19T00:51:09.983Z,9.5451
2023-04-19T00:52:11.400Z,9.5669
2023-04-19T00:53:12.801Z,9.6101
2023-04-19T00:54:14.443Z,9.5902
2023-04-19T00:55:16.298Z,9.5624
2023-04-19T00:56:17.697Z,9.5069
2023-04-19T00:57:19.060Z,9.5068
2023-04-19T00:58:20.412Z,9.5591
2023-04-19T00:59:21.756Z,9.5282
2023-04-19T01:00:23.145Z,9.5156
2023-04-19T01:01:24.510Z,9.5379
2023-04-19T01:02:25.930Z,9.5088
2023-04-19T01:03:27.889Z,9.4782
2023-04-19T01:04:29.734Z,9.4347
2023-04-19T01:05:31.153Z,9.4781
2023-04-19T01:06:32.508Z,9.4796
2023-04-19T01:07:33.944Z,9.5631
2023-04-19T01:08:35.309Z,9.5700
2023-04-19T01:09:36.708Z,9.6242
2023-04-19T01:10:38.045Z,9.5714
2023-04-19T01:11:40.782Z,9.4751
2023-04-19T01:12:41.436Z,9.5176
2023-04-19T01:13:42.803Z,9.5135
2023-04-19T01:14:44.202Z,9.4353
2023-04-19T01:15:45.620Z,9.3512
2023-04-19T01:16:46.995Z,9.4169
2023-04-19T01:17:48.399Z,9.3701
2023-04-19T01:18:49.808Z,9.3500
2023-04-19T01:19:51.202Z,9.3392
2023-04-19T01:20:52.589Z,9.3862
2023-04-19T01:21:54.038Z,9.4307
2023-04-19T01:22:55.393Z,9.4182
2023-04-19T01:23:56.973Z,9.3307
2023-04-19T01:24:58.365Z,9.3751
2023-04-19T01:25:59.885Z,9.3846
2023-04-19T01:27:01.317Z,9.3664
2023-04-19T01:28:02.814Z,9.3404
2023-04-19T01:29:04.230Z,9.3648
2023-04-19T01:30:05.573Z,9.3714
2023-04-19T01:31:06.960Z,9.3367
2023-04-19T01:32:08.277Z,9.3747
2023-04-19T01:33:09.618Z,9.3667
2023-04-19T01:34:10.983Z,9.3751
2023-04-19T01:35:12.328Z,9.3934
2023-04-19T01:36:13.673Z,9.4365
2023-04-19T01:37:15.010Z,9.4331
2023-04-19T01:38:16.497Z,9.4136
2023-04-19T01:39:18.870Z,9.3977
2023-04-19T01:40:20.301Z,9.3967
2023-04-19T01:41:21.643Z,9.4043
2023-04-19T01:42:23.101Z,9.3684
2023-04-19T01:43:24.522Z,9.3508
2023-04-19T01:44:25.913Z,9.3251
2023-04-19T01:45:27.315Z,9.3391
2023-04-19T01:46:28.888Z,9.3749
2023-04-19T01:47:30.308Z,9.3412
2023-04-19T01:48:31.758Z,9.3122
2023-04-19T01:49:33.146Z,9.3525
2023-04-19T01:50:34.591Z,9.3811
2023-04-19T01:51:36.013Z,9.3635
2023-04-19T01:52:37.485Z,9.3104
2023-04-19T01:53:38.920Z,9.3559
2023-04-19T01:54:40.287Z,9.3751
2023-04-19T01:55:41.742Z,9.3531
2023-04-19T01:56:43.209Z,9.3198
2023-04-19T01:57:44.609Z,9.3327
2023-04-19T01:58:46.057Z,9.3177
2023-04-19T01:59:47.430Z,9.3008
2023-04-19T02:00:48.919Z,9.2792
2023-04-19T02:01:50.348Z,9.3045
2023-04-19T02:02:51.989Z,9.2966
2023-04-19T02:03:53.598Z,9.2483
2023-04-19T02:04:55.526Z,9.2783
2023-04-19T02:05:56.963Z,9.2730
2023-04-19T02:06:58.431Z,9.2852
2023-04-19T02:07:59.876Z,9.2843
2023-04-19T02:09:01.258Z,9.2945
2023-04-19T02:10:02.773Z,9.2819
2023-04-19T02:11:04.221Z,9.2692
2023-04-19T02:12:05.623Z,9.2668
2023-04-19T02:13:07.139Z,9.3004
2023-04-19T02:14:08.542Z,9.2944
2023-04-19T02:15:09.969Z,9.2996
2023-04-19T02:16:11.550Z,9.3172
2023-04-19T02:17:13.037Z,9.2945
2023-04-19T02:18:14.423Z,9.3216
2023-04-19T02:19:15.875Z,9.3046
2023-04-19T02:20:17.299Z,9.3038
2023-04-19T02:21:18.724Z,9.2822
2023-04-19T02:22:20.147Z,9.3357
2023-04-19T02:23:21.608Z,9.3809
2023-04-19T02:24:23.014Z,9.3595
2023-04-19T02:25:24.467Z,9.3823
2023-04-19T02:26:26.030Z,9.3361
2023-04-19T02:27:27.489Z,9.2794
2023-04-19T02:28:28.888Z,9.2846
2023-04-19T02:29:30.382Z,9.3210
2023-04-19T02:30:31.858Z,9.3316
2023-04-19T02:31:33.300Z,9.3312
2023-04-19T02:32:34.790Z,9.3254
2023-04-19T02:33:36.127Z,9.2600
2023-04-19T02:34:37.599Z,9.2031
2023-04-19T02:35:38.966Z,9.2495
2023-04-19T02:36:40.347Z,9.2780
2023-04-19T02:37:41.829Z,9.2989
2023-04-19T02:38:43.190Z,9.3079
2023-04-19T02:39:44.595Z,9.3159
2023-04-19T02:40:46.035Z,9.2816
2023-04-19T02:41:47.558Z,9.3050
2023-04-19T02:42:48.963Z,9.3483
2023-04-19T02:43:50.411Z,9.3816
2023-04-19T02:44:51.995Z,9.3877
2023-04-19T02:45:53.476Z,9.3774
2023-04-19T02:46:54.893Z,9.4210
2023-04-19T02:47:56.369Z,9.4294
2023-04-19T02:48:57.939Z,9.4212
2023-04-19T02:49:59.328Z,9.3527
2023-04-19T02:51:00.773Z,9.3465
2023-04-19T02:52:02.241Z,9.3282
2023-04-19T02:53:03.785Z,9.2752
2023-04-19T02:54:05.273Z,9.2606
2023-04-19T02:55:06.659Z,9.2374
2023-04-19T02:56:08.073Z,9.2433
2023-04-19T02:57:09.526Z,9.3184
2023-04-19T02:58:10.921Z,9.3136
2023-04-19T02:59:12.370Z,9.3325
2023-04-19T03:00:13.861Z,9.3433
2023-04-19T03:01:15.643Z,9.3771
2023-04-19T03:02:17.118Z,9.4076
2023-04-19T03:03:18.593Z,9.3613
2023-04-19T03:04:19.998Z,9.3447
2023-04-19T03:05:21.445Z,9.3411
2023-04-19T03:06:22.858Z,9.2957
2023-04-19T03:07:24.378Z,9.2690
2023-04-19T03:08:25.799Z,9.2719
2023-04-19T03:09:27.227Z,9.2994
2023-04-19T03:10:28.685Z,9.2524
2023-04-19T03:11:30.091Z,9.2649
2023-04-19T03:12:31.473Z,9.2468
2023-04-19T03:13:32.968Z,9.2626
2023-04-19T03:14:34.362Z,9.2538
2023-04-19T03:15:35.815Z,9.2409
2023-04-19T03:16:37.252Z,9.2608
2023-04-19T03:17:38.697Z,9.2722
2023-04-19T03:18:40.131Z,9.3126
2023-04-19T03:19:41.609Z,9.3190
2023-04-19T03:20:43.058Z,9.3105
2023-04-19T03:21:44.519Z,9.2764
2023-04-19T03:22:45.982Z,9.2524
2023-04-19T03:23:47.380Z,9.2012
2023-04-19T03:24:48.787Z,9.2473
2023-04-19T03:25:50.250Z,9.2280
2023-04-19T03:26:51.725Z,9.2260
2023-04-19T03:27:53.155Z,9.2106
2023-04-19T03:28:54.660Z,9.2347
2023-04-19T03:29:56.179Z,9.2699
2023-04-19T03:30:57.676Z,9.2896
2023-04-19T03:31:59.113Z,9.2816
2023-04-19T03:33:00.520Z,9.2687
2023-04-19T03:34:01.940Z,9.2589
2023-04-19T03:35:03.348Z,9.2427
2023-04-19T03:36:04.797Z,9.2220
2023-04-19T03:37:06.190Z,9.2404
2023-04-19T03:38:07.632Z,9.2408
2023-04-19T03:39:09.082Z,9.2438
2023-04-19T03:40:10.503Z,9.2379
2023-04-19T03:41:11.949Z,9.2276
2023-04-19T03:42:13.420Z,9.2124
2023-04-19T03:43:14.839Z,9.2192
2023-04-19T03:44:16.432Z,9.2134
2023-04-19T03:45:18.194Z,9.2712
2023-04-19T03:46:19.649Z,9.2835
2023-04-19T03:47:21.253Z,9.2860
2023-04-19T03:48:22.837Z,9.2958
2023-04-19T03:49:24.294Z,9.2397
2023-04-19T03:50:25.737Z,9.2431
2023-04-19T03:51:27.158Z,9.2449
2023-04-19T03:52:28.567Z,9.2481
2023-04-19T03:53:29.970Z,9.2780
2023-04-19T03:54:31.375Z,9.2762
2023-04-19T03:55:32.841Z,9.2446
2023-04-19T03:56:34.438Z,9.2448
2023-04-19T03:57:35.863Z,9.2377
2023-04-19T03:58:37.381Z,9.2553
2023-04-19T03:59:38.800Z,9.2665
2023-04-19T04:00:40.258Z,9.2990
2023-04-19T04:01:41.895Z,9.2973
2023-04-19T04:02:43.837Z,9.3143
2023-04-19T04:03:45.634Z,9.3199
2023-04-19T04:04:47.486Z,9.3155
2023-04-19T04:05:48.929Z,9.2983
2023-04-19T04:06:50.406Z,9.2841
2023-04-19T04:07:51.808Z,9.2873
2023-04-19T04:08:53.199Z,9.2747
2023-04-19T04:09:54.618Z,9.2344
2023-04-19T04:10:56.026Z,9.2755
2023-04-19T04:11:57.410Z,9.2675
2023-04-19T04:12:58.899Z,9.3275
2023-04-19T04:14:00.392Z,9.3414
2023-04-19T04:15:01.863Z,9.3287
2023-04-19T04:16:03.290Z,9.3203
2023-04-19T04:17:04.716Z,9.3010
2023-04-19T04:18:08.566Z,9.2949
2023-04-19T04:19:07.910Z,9.2867
2023-04-19T04:20:09.328Z,9.2948
2023-04-19T04:21:10.717Z,9.2692
2023-04-19T04:22:12.163Z,9.2698
2023-04-19T04:23:13.566Z,9.2532
2023-04-19T04:24:15.144Z,9.2706
2023-04-19T04:25:16.686Z,9.2729
2023-04-19T04:26:18.086Z,9.3075
2023-04-19T04:27:19.584Z,9.3209
2023-04-19T04:28:21.274Z,9.3125
2023-04-19T04:29:22.735Z,9.2953
2023-04-19T04:30:26.554Z,9.2199
2023-04-19T04:31:24.258Z,9.1988
2023-04-19T04:32:25.750Z,9.2227
2023-04-19T04:33:27.232Z,9.2779
2023-04-19T04:34:28.724Z,9.2365
2023-04-19T04:35:30.199Z,9.2506
2023-04-19T04:36:31.645Z,9.2575
2023-04-19T04:37:33.084Z,9.3028
2023-04-19T04:38:34.576Z,9.3045
2023-04-19T04:39:35.978Z,9.3118
2023-04-19T04:40:37.383Z,9.3039
2023-04-19T04:41:38.828Z,9.2650
2023-04-19T04:42:40.295Z,9.2624
2023-04-19T04:43:41.944Z,9.3083
2023-04-19T04:44:43.381Z,9.3173
2023-04-19T04:45:44.862Z,9.2793
2023-04-19T04:46:46.331Z,9.2723
2023-04-19T04:47:47.806Z,9.2750
2023-04-19T04:48:49.279Z,9.2501
2023-04-19T04:49:50.696Z,9.2848
2023-04-19T04:50:52.113Z,9.2791
2023-04-19T04:51:53.560Z,9.2636
2023-04-19T04:52:54.972Z,9.2275
2023-04-19T04:53:56.516Z,9.2168
2023-04-19T04:54:57.978Z,9.2171
2023-04-19T04:55:59.672Z,9.1922
2023-04-19T04:57:01.189Z,9.2129
2023-04-19T04:58:02.614Z,9.2352
2023-04-19T04:59:04.000Z,9.2441
2023-04-19T05:00:05.435Z,9.2293
2023-04-19T05:01:06.888Z,9.2520
2023-04-19T05:02:08.469Z,9.3028
2023-04-19T05:03:10.060Z,9.3253
2023-04-19T05:04:11.587Z,9.3759
2023-04-19T05:05:13.086Z,9.3652
2023-04-19T05:06:14.501Z,9.3969
2023-04-19T05:07:16.173Z,9.4010
2023-04-19T05:08:17.594Z,9.3730
2023-04-19T05:09:18.998Z,9.3941
2023-04-19T05:10:20.457Z,9.4241
2023-04-19T05:11:21.885Z,9.4451
2023-04-19T05:12:23.367Z,9.4518
2023-04-19T05:13:24.829Z,9.4148
2023-04-19T05:14:26.280Z,9.3687
2023-04-19T05:15:27.709Z,9.4062
2023-04-19T05:16:29.310Z,9.4313
2023-04-19T05:17:30.825Z,9.4090
2023-04-19T05:18:32.213Z,9.3812
2023-04-19T05:19:33.654Z,9.3678
2023-04-19T05:20:35.089Z,9.3681
2023-04-19T05:21:36.577Z,9.3635
2023-04-19T05:22:37.978Z,9.3478
2023-04-19T05:23:39.453Z,9.3588
2023-04-19T05:24:42.375Z,9.3895
2023-04-19T05:25:41.485Z,9.3087
2023-04-19T05:26:42.883Z,9.3042
2023-04-19T05:27:44.308Z,9.3172
2023-04-19T05:28:45.754Z,9.3186
2023-04-19T05:29:47.175Z,9.3470
2023-04-19T05:30:48.660Z,9.3752
2023-04-19T05:31:50.101Z,9.3788
2023-04-19T05:32:51.554Z,9.4215
2023-04-19T05:33:53.047Z,9.4146
2023-04-19T05:34:54.529Z,9.4285
2023-04-19T05:35:55.947Z,9.4089
2023-04-19T05:36:57.397Z,9.4483
2023-04-19T05:37:58.821Z,9.4661
2023-04-19T05:39:00.220Z,9.4622
2023-04-19T05:40:01.667Z,9.4316
2023-04-19T05:41:03.048Z,9.4076
2023-04-19T05:42:04.462Z,9.4352
2023-04-19T05:43:05.870Z,9.4086
2023-04-19T05:44:07.281Z,9.4150
2023-04-19T05:45:08.679Z,9.4185
2023-04-19T05:46:10.165Z,9.3990
2023-04-19T05:47:11.596Z,9.3870
2023-04-19T05:48:12.987Z,9.4305
2023-04-19T05:49:14.450Z,9.4254
2023-04-19T05:50:15.845Z,9.4444
2023-04-19T05:51:17.284Z,9.4353
2023-04-19T05:52:18.686Z,9.3906
2023-04-19T05:53:20.097Z,9.3148
2023-04-19T05:54:21.505Z,9.3455
2023-04-19T05:55:23.009Z,9.3664
2023-04-19T05:56:24.440Z,9.3931
2023-04-19T05:57:25.825Z,9.3612
2023-04-19T05:58:27.254Z,9.3490
2023-04-19T05:59:28.683Z,9.3931
2023-04-19T06:00:30.083Z,9.4359
2023-04-19T06:01:31.514Z,9.4391
2023-04-19T06:02:33.133Z,9.4007
2023-04-19T06:03:34.953Z,9.3859
2023-04-19T06:04:37.375Z,9.4038
2023-04-19T06:05:39.378Z,9.4186
2023-04-19T06:06:40.801Z,9.3965
2023-04-19T06:07:47.246Z,9.3987
2023-04-19T06:08:44.282Z,9.4298
2023-04-19T06:09:45.693Z,9.4285
2023-04-19T06:10:54.510Z,9.4587
2023-04-19T06:11:51.201Z,9.4692
2023-04-19T06:12:50.518Z,9.5450
2023-04-19T06:13:51.970Z,9.4982
2023-04-19T06:14:53.399Z,9.4340
2023-04-19T06:15:54.919Z,9.4943
2023-04-19T06:16:56.304Z,9.4986
2023-04-19T06:17:59.776Z,9.5224
2023-04-19T06:18:58.881Z,9.5694
2023-04-19T06:20:00.365Z,9.5892
2023-04-19T06:21:01.775Z,9.5919
2023-04-19T06:22:03.194Z,9.5626
2023-04-19T06:23:04.614Z,9.5677
2023-04-19T06:24:06.076Z,9.5871
2023-04-19T06:25:07.521Z,9.6177
2023-04-19T06:26:09.047Z,9.5588
2023-04-19T06:27:10.479Z,9.5272
2023-04-19T06:28:11.882Z,9.4976
2023-04-19T06:29:13.277Z,9.4695
2023-04-19T06:30:14.706Z,9.4904
2023-04-19T06:31:16.099Z,9.4859
2023-04-19T06:32:17.580Z,9.5175
2023-04-19T06:33:18.995Z,9.5188
2023-04-19T06:34:20.412Z,9.5091
2023-04-19T06:35:21.811Z,9.5453
2023-04-19T06:36:23.239Z,9.5787
2023-04-19T06:37:24.691Z,9.5915
2023-04-19T06:38:26.130Z,9.5256
2023-04-19T06:39:27.548Z,9.5792
2023-04-19T06:40:29.036Z,9.5617
2023-04-19T06:41:30.530Z,9.5581
2023-04-19T06:42:31.982Z,9.5530
2023-04-19T06:43:33.398Z,9.5531
2023-04-19T06:44:34.943Z,9.5143
2023-04-19T06:45:36.456Z,9.5088
2023-04-19T06:46:37.894Z,9.4717
2023-04-19T06:47:39.366Z,9.5501
2023-04-19T06:48:40.803Z,9.5389
2023-04-19T06:49:42.369Z,9.6082
2023-04-19T06:50:43.835Z,9.6670
2023-04-19T06:51:45.278Z,9.6523
2023-04-19T06:52:46.751Z,9.5268
2023-04-19T06:53:48.202Z,9.6128
2023-04-19T06:54:49.816Z,9.5897
2023-04-19T06:55:51.261Z,9.6352
2023-04-19T06:56:52.727Z,9.6588
2023-04-19T06:57:54.229Z,9.6177
2023-04-19T06:58:55.680Z,9.6808
2023-04-19T06:59:57.154Z,9.7059
2023-04-19T07:00:58.674Z,9.6182
2023-04-19T07:02:00.213Z,9.6750
2023-04-19T07:03:01.869Z,9.6780
2023-04-19T07:04:03.874Z,9.7635
2023-04-19T07:05:06.093Z,9.7545
2023-04-19T07:06:07.519Z,9.7682
2023-04-19T07:07:08.942Z,9.8174
2023-04-19T07:08:10.394Z,9.8594
2023-04-19T07:09:11.836Z,9.7726
2023-04-19T07:10:13.318Z,9.7625
2023-04-19T07:11:14.756Z,9.7905
2023-04-19T07:12:16.266Z,9.7482
2023-04-19T07:13:17.718Z,9.7534
2023-04-19T07:14:19.334Z,9.7508
2023-04-19T07:15:20.797Z,9.7514
2023-04-19T07:16:22.464Z,9.6871
2023-04-19T07:17:24.010Z,9.7089
2023-04-19T07:18:25.565Z,9.7099
2023-04-19T07:19:27.059Z,9.7393
2023-04-19T07:20:28.720Z,9.7876
2023-04-19T07:21:30.248Z,9.8188
2023-04-19T07:22:31.774Z,9.7693
2023-04-19T07:23:33.243Z,9.7983
2023-04-19T07:24:34.663Z,9.7850
2023-04-19T07:25:36.125Z,9.8037
2023-04-19T07:26:37.630Z,9.8677
2023-04-19T07:27:39.043Z,9.9280
2023-04-19T07:28:40.509Z,9.9449
2023-04-19T07:29:41.989Z,9.9413
2023-04-19T07:30:43.450Z,9.9230
2023-04-19T07:31:44.947Z,9.8976
2023-04-19T07:32:46.555Z,9.8014
2023-04-19T07:33:48.094Z,9.8113
2023-04-19T07:34:49.561Z,9.8679
2023-04-19T07:35:51.221Z,9.9075
2023-04-19T07:36:52.714Z,9.9710
2023-04-19T07:37:57.264Z,9.9502
2023-04-19T07:38:58.901Z,10.0480
2023-04-19T07:40:01.238Z,10.0415
2023-04-19T07:41:02.751Z,10.0238
2023-04-19T07:42:04.259Z,9.9972
2023-04-19T07:43:05.796Z,10.0611
2023-04-19T07:44:07.356Z,10.0430
2023-04-19T07:45:08.809Z,10.0441
2023-04-19T07:46:10.299Z,10.0041
2023-04-19T07:47:11.758Z,10.0285
2023-04-19T07:48:13.251Z,10.1859
2023-04-19T07:49:14.713Z,10.1663
2023-04-19T07:50:16.297Z,10.1400
2023-04-19T07:51:17.831Z,10.0988
2023-04-19T07:52:19.272Z,10.0544
2023-04-19T07:53:20.721Z,10.0188
2023-04-19T07:54:22.137Z,10.0913
2023-04-19T07:55:23.648Z,9.9563
2023-04-19T07:56:25.091Z,9.9850
2023-04-19T07:57:26.618Z,10.0712
2023-04-19T07:58:28.090Z,10.0589
2023-04-19T07:59:29.602Z,10.1398
2023-04-19T08:00:31.023Z,10.1184
2023-04-19T08:01:32.840Z,10.1754
2023-04-19T08:02:34.787Z,10.2050
2023-04-19T08:03:36.481Z,10.2014
2023-04-19T08:04:38.548Z,10.1798
2023-04-19T08:05:40.417Z,10.1373
2023-04-19T08:06:41.975Z,10.0832
2023-04-19T08:07:43.478Z,10.0520
2023-04-19T08:08:44.930Z,10.0974
2023-04-19T08:09:46.476Z,10.1453
2023-04-19T08:10:47.932Z,10.1648
2023-04-19T08:11:49.447Z,10.1945
2023-04-19T08:14:04.558Z,10.3035
2023-04-19T08:15:02.661Z,10.2586
2023-04-19T08:17:22.050Z,10.3498
2023-04-19T08:18:01.119Z,10.3726
2023-04-19T08:19:02.608Z,10.3628
2023-04-19T08:20:04.100Z,10.3587
2023-04-19T08:21:05.538Z,10.3795
2023-04-19T08:22:07.014Z,10.3890
2023-04-19T08:23:20.363Z,10.3189
2023-04-19T08:24:10.483Z,10.2862
2023-04-19T08:25:11.900Z,10.3777
2023-04-19T08:26:13.378Z,10.3507
2023-04-19T08:27:14.881Z,10.4360
2023-04-19T08:28:16.354Z,10.4763
2023-04-19T08:29:17.945Z,10.5168
2023-04-19T08:30:19.595Z,10.6011
2023-04-19T08:31:21.056Z,10.6125
2023-04-19T08:32:22.552Z,10.5282
2023-04-19T08:33:24.040Z,10.5958
2023-04-19T08:34:25.469Z,10.4555
2023-04-19T08:35:26.908Z,10.3926
2023-04-19T08:36:37.104Z,10.4512
2023-04-19T08:37:30.451Z,10.4940
2023-04-19T08:38:31.975Z,10.4977
2023-04-19T08:39:34.262Z,10.5332
2023-04-19T08:40:33.545Z,10.4859
2023-04-19T08:41:34.999Z,10.5127
2023-04-19T08:42:37.249Z,10.5129
2023-04-19T08:43:40.486Z,10.5381
2023-04-19T08:44:53.795Z,10.5143
2023-04-19T08:45:43.007Z,10.5498
2023-04-19T08:46:44.421Z,10.5764
2023-04-19T08:47:58.665Z,10.6225
2023-04-19T08:48:47.942Z,10.6528
2023-04-19T08:49:56.300Z,10.7343
2023-04-19T08:51:04.446Z,10.6289
2023-04-19T08:51:53.494Z,10.5262
2023-04-19T08:52:59.053Z,10.4835
2023-04-19T08:53:56.975Z,10.4884
2023-04-19T08:54:58.471Z,10.4822
2023-04-19T08:56:10.023Z,10.5712
2023-04-19T08:57:01.958Z,10.7183
2023-04-19T08:58:04.197Z,10.7017
2023-04-19T08:59:19.253Z,10.6322
2023-04-19T09:00:06.619Z,10.6874
2023-04-19T09:01:08.301Z,10.6926
2023-04-19T09:02:08.733Z,10.6966
2023-04-19T09:03:10.646Z,10.5786
2023-04-19T09:05:13.378Z,10.5736
2023-04-19T09:06:15.293Z,10.5562
2023-04-19T09:07:16.842Z,10.5639
2023-04-19T09:08:18.297Z,10.5871
2023-04-19T09:10:21.576Z,10.6248
2023-04-19T09:11:23.085Z,10.6183
2023-04-19T09:12:24.537Z,10.6760
2023-04-19T09:13:26.032Z,10.7382
2023-04-19T09:14:27.467Z,10.7598
2023-04-19T09:15:28.940Z,10.7413
2023-04-19T09:16:30.414Z,10.8228
2023-04-19T09:17:31.888Z,10.9916
2023-04-19T09:18:35.933Z,10.9861
2023-04-19T09:19:35.372Z,11.2014
2023-04-19T09:20:36.840Z,11.4425
2023-04-19T09:21:38.270Z,11.5311
2023-04-19T09:22:39.684Z,11.3932
2023-04-19T09:23:41.148Z,11.5699
2023-04-19T09:26:06.280Z,11.4982
2023-04-19T09:26:46.233Z,11.5581
2023-04-19T09:27:47.669Z,11.5483
2023-04-19T09:28:49.081Z,11.4987
2023-04-19T09:29:50.496Z,11.4119
2023-04-19T09:31:00.668Z,11.3790
2023-04-19T09:31:54.092Z,11.2842
2023-04-19T09:32:55.568Z,11.0886
2023-04-19T09:33:56.983Z,11.0891
2023-04-19T09:34:58.454Z,11.1852
2023-04-19T09:35:59.902Z,11.2449
2023-04-19T09:37:12.177Z,11.2700
2023-04-19T09:38:06.721Z,11.3591
2023-04-19T09:39:05.934Z,11.3756
2023-04-19T09:40:07.381Z,11.3836
2023-04-19T09:41:08.800Z,11.2682
2023-04-19T09:42:10.260Z,11.4420
2023-04-19T09:44:50.198Z,11.2825
2023-04-19T09:46:17.344Z,11.4031
2023-04-19T09:47:18.716Z,11.3374
2023-04-19T09:48:20.159Z,11.3556
2023-04-19T09:49:33.547Z,11.3709
2023-04-19T09:50:27.288Z,11.3920
2023-04-19T09:51:23.753Z,11.5002
2023-04-19T09:52:25.150Z,11.5153
2023-04-19T09:53:26.528Z,11.4434
2023-04-19T09:54:27.941Z,11.5090
2023-04-19T09:55:31.721Z,11.4973
2023-04-19T09:56:31.350Z,11.5234
2023-04-19T09:57:32.766Z,11.6175
2023-04-19T09:59:35.919Z,11.5451
2023-04-19T10:00:47.996Z,11.4977
2023-04-19T10:01:39.368Z,11.4563
2023-04-19T10:02:40.949Z,11.5071
2023-04-19T10:03:42.619Z,11.5792
2023-04-19T10:05:46.317Z,11.5140
2023-04-19T10:07:07.403Z,11.4056
2023-04-19T10:07:49.874Z,11.3868
2023-04-19T10:08:51.621Z,11.4138
2023-04-19T10:09:55.023Z,11.2039
2023-04-19T10:10:55.236Z,11.2652
2023-04-19T10:12:03.764Z,11.3652
2023-04-19T10:13:15.891Z,11.4225
2023-04-19T10:14:00.900Z,11.3690
2023-04-19T10:15:02.313Z,11.4589
2023-04-19T10:16:15.502Z,11.4268
2023-04-19T10:17:05.794Z,11.3531
2023-04-19T10:18:07.413Z,11.3598
2023-04-19T10:19:10.054Z,11.4768
2023-04-19T10:20:09.224Z,11.3702
2023-04-19T10:21:10.608Z,11.3531
2023-04-19T10:22:11.990Z,11.3764
2023-04-19T10:23:13.487Z,11.4480
2023-04-19T10:24:14.893Z,11.4170
2023-04-19T10:25:16.356Z,11.4646
2023-04-19T10:26:17.765Z,11.6073
2023-04-19T10:27:19.216Z,11.5795
2023-04-19T10:28:20.647Z,11.6240
2023-04-19T10:29:22.074Z,11.6177
2023-04-19T10:30:23.517Z,11.5388
2023-04-19T10:31:24.912Z,11.7318
2023-04-19T10:32:26.380Z,11.7441
2023-04-19T10:33:27.898Z,11.7945
2023-04-19T10:34:29.350Z,11.8511
2023-04-19T10:35:30.753Z,12.0352
2023-04-19T10:36:32.189Z,12.0092
2023-04-19T10:37:33.793Z,11.9577
2023-04-19T10:38:35.329Z,11.8333
2023-04-19T10:39:36.794Z,11.8715
2023-04-19T10:40:38.178Z,11.9323
2023-04-19T10:41:39.654Z,11.7800
2023-04-19T10:42:41.037Z,11.7605
2023-04-19T10:43:42.477Z,11.7956
2023-04-19T10:44:43.866Z,11.7414
2023-04-19T10:45:45.313Z,11.6165
2023-04-19T10:46:46.707Z,11.6037
2023-04-19T10:47:48.195Z,11.5396
2023-04-19T10:48:49.701Z,11.3812
2023-04-19T10:49:51.181Z,11.3220
2023-04-19T10:50:52.634Z,11.3885
2023-04-19T10:51:54.059Z,11.3600
2023-04-19T10:52:55.484Z,11.4340
2023-04-19T10:53:56.940Z,11.3550
2023-04-19T10:54:58.374Z,11.3832
2023-04-19T10:55:59.779Z,11.4956
2023-04-19T10:57:01.201Z,11.5378
2023-04-19T10:58:02.602Z,11.4776
2023-04-19T10:59:04.036Z,11.5750
2023-04-19T11:00:05.471Z,11.6155
2023-04-19T11:01:06.889Z,11.5169
2023-04-19T11:02:08.395Z,11.5166
2023-04-19T11:03:10.086Z,11.5065
2023-04-19T11:04:11.902Z,11.5858
2023-04-19T11:05:13.603Z,11.5539
2023-04-19T11:06:15.014Z,11.6434
2023-04-19T11:07:16.386Z,11.6932
2023-04-19T11:08:17.799Z,11.7232
2023-04-19T11:09:19.260Z,11.5994
2023-04-19T11:10:20.719Z,11.6622
2023-04-19T11:11:22.143Z,11.7780
2023-04-19T11:12:23.597Z,11.7593
2023-04-19T11:13:25.039Z,11.7684
2023-04-19T11:14:26.493Z,11.7675
2023-04-19T11:15:27.969Z,11.7241
2023-04-19T11:16:42.434Z,11.6025
2023-04-19T11:17:31.598Z,11.7004
2023-04-19T11:18:33.301Z,11.7998
2023-04-19T11:19:34.683Z,11.8255
2023-04-19T11:20:36.157Z,11.7772
2023-04-19T11:21:37.554Z,11.8226
2023-04-19T11:22:39.052Z,11.6143
2023-04-19T11:23:40.455Z,11.5822
2023-04-19T11:24:41.873Z,11.6722
2023-04-19T11:25:43.296Z,11.8940
2023-04-19T11:26:44.752Z,12.0020
2023-04-19T11:27:46.230Z,12.0468
2023-04-19T11:28:47.680Z,12.1225
2023-04-19T11:29:49.135Z,12.0102
2023-04-19T11:30:50.622Z,12.1097
2023-04-19T11:31:52.137Z,12.1533
2023-04-19T11:32:53.666Z,12.1973
2023-04-19T11:33:55.439Z,12.0530
2023-04-19T11:34:57.069Z,12.0937
2023-04-19T11:35:58.509Z,12.2202
2023-04-19T11:36:59.938Z,12.1534
2023-04-19T11:38:01.428Z,12.2044
2023-04-19T11:39:02.898Z,12.1565
2023-04-19T11:40:05.104Z,12.0575
2023-04-19T11:41:06.908Z,11.8926
2023-04-19T11:42:08.340Z,11.9244
2023-04-19T11:43:09.710Z,12.0055
2023-04-19T11:44:11.159Z,12.0874
2023-04-19T11:45:25.897Z,12.1024
2023-04-19T11:46:14.737Z,12.1305
2023-04-19T11:47:16.251Z,12.0389
2023-04-19T11:48:17.888Z,11.9817
2023-04-19T11:49:19.348Z,11.8908
2023-04-19T11:50:20.831Z,11.9602
2023-04-19T11:51:22.460Z,11.9351
2023-04-19T11:52:23.913Z,11.8824
2023-04-19T11:53:25.371Z,11.8528
2023-04-19T11:54:26.854Z,11.9001
2023-04-19T11:55:28.272Z,11.8686
2023-04-19T11:56:29.732Z,11.8896
2023-04-19T11:57:31.183Z,12.0451
2023-04-19T11:58:32.617Z,11.9501
2023-04-19T11:59:34.064Z,12.0123
2023-04-19T12:00:35.524Z,12.0714
2023-04-19T12:01:36.918Z,12.0353
2023-04-19T12:02:38.610Z,12.0006
2023-04-19T12:03:40.335Z,12.0949
2023-04-19T12:04:42.205Z,12.2334
2023-04-19T12:05:44.146Z,12.1267
2023-04-19T12:06:45.666Z,12.0737
2023-04-19T12:07:47.124Z,12.1607
2023-04-19T12:08:48.575Z,12.3394
2023-04-19T12:09:50.032Z,12.3460
2023-04-19T12:10:51.519Z,12.3718
2023-04-19T12:11:52.940Z,12.4120
2023-04-19T12:12:54.383Z,12.4178
2023-04-19T12:13:55.813Z,12.2732
2023-04-19T12:14:57.289Z,12.2314
2023-04-19T12:15:58.758Z,12.3180
2023-04-19T12:17:00.322Z,12.3928
2023-04-19T12:18:01.876Z,12.3895
2023-04-19T12:19:03.476Z,12.3024
2023-04-19T12:20:05.027Z,12.2803
2023-04-19T12:21:06.465Z,12.3523
2023-04-19T12:22:07.921Z,12.2069
2023-04-19T12:23:09.401Z,12.1808
2023-04-19T12:24:10.918Z,12.1268
2023-04-19T12:25:12.404Z,12.2017
2023-04-19T12:26:13.839Z,12.2049
2023-04-19T12:27:15.359Z,12.1847
2023-04-19T12:28:16.836Z,12.1925
2023-04-19T12:29:18.385Z,12.0941
2023-04-19T12:30:19.836Z,12.0223
2023-04-19T12:31:21.250Z,11.9957
2023-04-19T12:32:22.733Z,11.9060
2023-04-19T12:33:24.240Z,11.8881
2023-04-19T12:34:25.687Z,11.8864
2023-04-19T12:35:27.174Z,11.8611
2023-04-19T12:36:28.688Z,11.7973
2023-04-19T12:37:30.153Z,11.8285
2023-04-19T12:38:31.615Z,11.8456
2023-04-19T12:39:33.129Z,11.6419
2023-04-19T12:40:34.789Z,11.4929
2023-04-19T12:41:36.278Z,11.3179
2023-04-19T12:42:37.730Z,10.9686
2023-04-19T12:43:39.199Z,10.7891
2023-04-19T12:44:40.697Z,10.8578
2023-04-19T12:45:42.256Z,10.9353
2023-04-19T12:46:43.785Z,11.1151
2023-04-19T12:47:45.290Z,11.2704